Time;durP1;ratioP1;P1;durP2;ratioP2;P2;SDS_P1;SDS_P2;PMS_P1;PMS_P2;Temp;Humidity;BMP_temperature;BMP_pressure;BME280_temperature;BME280_humidity;BME280_pressure;Samples;Min_cycle;Max_cycle;Signal;HPM_P1;HPM_P2
2023/05/15 00:00:39;;;;;;;2.97;2.28;;;12.20;99.90;;;;;;5022188;28;20029;-66
2023/05/15 00:03:04;;;;;;;8.88;3.17;;;12.20;99.90;;;;;;5027575;28;20029;-65
2023/05/15 00:05:30;;;;;;;4.22;2.63;;;12.20;99.90;;;;;;5032764;28;20402;-66
2023/05/15 00:07:56;;;;;;;3.88;2.83;;;12.20;99.90;;;;;;5031417;28;20029;-66
2023/05/15 00:10:21;;;;;;;3.65;2.83;;;12.10;99.90;;;;;;5031012;28;20049;-65
2023/05/15 00:12:47;;;;;;;4.18;2.10;;;12.00;99.90;;;;;;5039647;28;20471;-66
2023/05/15 00:15:13;;;;;;;4.03;2.90;;;12.00;99.90;;;;;;5020970;28;20116;-65
2023/05/15 00:17:38;;;;;;;5.05;2.58;;;12.00;99.90;;;;;;5044678;28;20013;-66
2023/05/15 00:20:06;;;;;;;5.20;2.50;;;11.90;99.90;;;;;;5036175;28;20391;-66
2023/05/15 00:22:32;;;;;;;7.32;2.33;;;11.90;99.90;;;;;;5042539;28;20125;-66
2023/05/15 00:24:58;;;;;;;3.95;2.78;;;11.90;99.90;;;;;;5018159;28;20447;-66
2023/05/15 00:27:25;;;;;;;5.78;3.08;;;11.90;99.90;;;;;;5047185;28;20481;-65
2023/05/15 00:29:51;;;;;;;4.32;2.58;;;11.90;99.90;;;;;;5025915;28;20044;-65
2023/05/15 00:32:16;;;;;;;4.75;3.05;;;11.90;99.90;;;;;;5028387;28;20060;-66
2023/05/15 00:34:42;;;;;;;5.13;3.13;;;11.90;99.90;;;;;;5027331;28;20463;-66
2023/05/15 00:37:07;;;;;;;7.25;3.25;;;11.90;99.90;;;;;;5033954;28;20484;-65
2023/05/15 00:39:33;;;;;;;5.10;2.83;;;11.80;99.90;;;;;;5037443;28;20021;-66
2023/05/15 00:41:59;;;;;;;5.35;2.78;;;11.80;99.90;;;;;;5041721;28;20075;-66
2023/05/15 00:44:26;;;;;;;4.85;2.90;;;11.80;99.90;;;;;;5037726;28;20032;-65
2023/05/15 00:46:53;;;;;;;5.25;2.63;;;11.80;99.90;;;;;;5040789;28;20545;-66
2023/05/15 00:49:21;;;;;;;8.52;3.63;;;11.70;99.90;;;;;;5041461;28;20029;-66
2023/05/15 00:51:47;;;;;;;4.45;2.83;;;11.70;99.90;;;;;;5044885;28;20039;-66
2023/05/15 00:54:12;;;;;;;7.35;2.92;;;11.70;99.90;;;;;;5040655;28;20425;-66
2023/05/15 00:56:39;;;;;;;5.72;2.63;;;11.70;99.90;;;;;;5043700;28;20036;-66
2023/05/15 00:59:06;;;;;;;6.63;3.00;;;11.60;99.90;;;;;;5040329;28;20028;-65
2023/05/15 01:01:33;;;;;;;6.15;2.92;;;11.60;99.90;;;;;;5031698;28;20093;-66
2023/05/15 01:04:03;;;;;;;5.40;2.88;;;11.60;99.90;;;;;;5030314;28;20075;-66
2023/05/15 01:06:29;;;;;;;4.18;2.83;;;11.50;99.90;;;;;;5009956;28;20025;-66
2023/05/15 01:08:58;;;;;;;4.28;2.88;;;11.40;99.90;;;;;;5027985;28;20045;-66
2023/05/15 01:11:34;;;;;;;3.80;2.75;;;11.30;99.90;;;;;;5036426;28;20086;-66
2023/05/15 01:14:04;;;;;;;9.60;3.83;;;11.20;99.90;;;;;;5014707;28;20037;-65
2023/05/15 01:16:30;;;;;;;4.50;3.08;;;11.20;99.90;;;;;;5032558;28;20026;-66
2023/05/15 01:18:56;;;;;;;8.18;3.10;;;11.20;99.90;;;;;;5031008;28;20053;-65
2023/05/15 01:21:33;;;;;;;6.43;2.85;;;11.20;99.90;;;;;;5030762;28;20068;-66
2023/05/15 01:24:33;;;;;;;5.13;3.00;;;11.20;99.90;;;;;;5033927;28;20474;-66
2023/05/15 01:27:14;;;;;;;5.70;3.22;;;11.10;99.90;;;;;;5032285;28;20044;-66
2023/05/15 01:30:01;;;;;;;7.90;2.85;;;11.10;99.90;;;;;;5032027;28;20036;-67
2023/05/15 01:33:07;;;;;;;3.97;2.60;;;11.00;99.90;;;;;;5030185;28;20025;-65
2023/05/15 01:35:35;;;;;;;4.05;2.80;;;10.90;99.90;;;;;;5036507;28;20021;-65
2023/05/15 01:38:19;;;;;;;4.88;3.65;;;10.80;99.90;;;;;;5027901;28;20025;-66
2023/05/15 01:40:48;;;;;;;7.30;3.03;;;10.70;99.90;;;;;;5030328;28;20040;-66
2023/05/15 01:43:20;;;;;;;8.35;3.25;;;10.60;99.90;;;;;;5024383;28;20037;-67
2023/05/15 01:45:46;;;;;;;5.90;3.33;;;10.60;99.90;;;;;;5029448;28;20170;-66
2023/05/15 01:48:14;;;;;;;4.30;3.03;;;10.50;99.90;;;;;;5036021;28;20100;-66
2023/05/15 01:50:40;;;;;;;7.95;3.55;;;10.50;99.90;;;;;;5035525;28;20052;-65
2023/05/15 01:53:08;;;;;;;4.35;3.05;;;10.40;99.90;;;;;;5015218;28;20093;-66
2023/05/15 01:55:35;;;;;;;4.13;3.13;;;10.40;99.90;;;;;;5037313;28;20100;-66
2023/05/15 01:58:01;;;;;;;4.82;3.15;;;10.40;99.90;;;;;;5037297;28;20394;-66
2023/05/15 02:00:28;;;;;;;6.00;3.90;;;10.30;99.90;;;;;;5031688;28;20033;-67
2023/05/15 02:02:54;;;;;;;5.22;3.58;;;10.30;99.90;;;;;;5026155;28;20080;-66
2023/05/15 02:05:21;;;;;;;6.72;3.63;;;10.20;99.90;;;;;;5027906;28;20025;-65
2023/05/15 02:07:48;;;;;;;8.13;4.57;;;10.20;99.90;;;;;;5029863;28;20044;-66
2023/05/15 02:10:14;;;;;;;13.77;4.97;;;10.20;99.90;;;;;;5028039;28;20399;-67
2023/05/15 02:12:41;;;;;;;7.28;4.30;;;10.10;99.90;;;;;;5043823;28;20045;-66
2023/05/15 02:15:09;;;;;;;6.20;4.43;;;10.10;99.90;;;;;;5009010;28;20029;-66
2023/05/15 02:17:35;;;;;;;5.93;4.50;;;10.10;99.90;;;;;;5033254;28;20029;-67
2023/05/15 02:20:01;;;;;;;9.73;4.20;;;10.10;99.90;;;;;;5036230;28;20466;-66
2023/05/15 02:22:26;;;;;;;8.15;4.68;;;10.00;99.90;;;;;;5042516;28;20094;-67
2023/05/15 02:24:52;;;;;;;7.07;4.07;;;10.00;99.90;;;;;;5036456;28;20025;-66
2023/05/15 02:27:26;;;;;;;6.85;4.47;;;9.90;99.90;;;;;;5040810;28;20083;-66
2023/05/15 02:30:18;;;;;;;8.55;4.57;;;9.90;99.90;;;;;;5018479;28;20368;-65
2023/05/15 02:32:58;;;;;;;7.30;4.78;;;9.90;99.90;;;;;;5036031;28;20784;-66
2023/05/15 02:35:37;;;;;;;8.05;4.60;;;9.80;99.90;;;;;;5042605;28;20394;-66
2023/05/15 02:38:11;;;;;;;6.47;3.70;;;9.80;99.90;;;;;;5042692;28;20025;-66
2023/05/15 02:40:39;;;;;;;6.55;4.00;;;9.80;99.90;;;;;;5051816;28;20044;-66
2023/05/15 02:43:06;;;;;;;6.15;4.30;;;9.80;99.90;;;;;;5038245;28;20036;-66
2023/05/15 02:45:33;;;;;;;8.18;4.85;;;9.70;99.90;;;;;;5031736;28;20018;-66
2023/05/15 02:47:59;;;;;;;6.18;4.53;;;9.60;99.90;;;;;;5032554;28;20166;-66
2023/05/15 02:50:25;;;;;;;9.32;4.70;;;9.70;99.90;;;;;;5031419;28;20029;-65
2023/05/15 02:52:59;;;;;;;7.25;4.97;;;9.80;99.90;;;;;;5027235;28;20072;-67
2023/05/15 02:55:25;;;;;;;6.55;4.72;;;10.00;99.90;;;;;;5031613;28;20753;-66
2023/05/15 02:57:51;;;;;;;8.63;4.53;;;10.10;99.90;;;;;;5036871;28;20013;-66
2023/05/15 03:00:17;;;;;;;7.38;5.10;;;10.20;99.90;;;;;;5042727;28;20058;-66
2023/05/15 03:02:42;;;;;;;8.82;4.70;;;10.40;99.90;;;;;;5044488;28;20025;-67
2023/05/15 03:05:09;;;;;;;7.43;4.15;;;10.50;99.90;;;;;;5039109;28;20402;-66
2023/05/15 03:07:34;;;;;;;5.28;3.90;;;10.60;99.90;;;;;;5043698;28;20072;-66
2023/05/15 03:10:00;;;;;;;6.65;4.45;;;10.70;99.90;;;;;;5041044;28;20448;-66
2023/05/15 03:12:25;;;;;;;5.47;3.95;;;10.80;99.90;;;;;;5039673;28;20076;-66
2023/05/15 03:14:51;;;;;;;11.20;3.90;;;10.90;99.90;;;;;;5015748;28;20384;-66
2023/05/15 03:17:16;;;;;;;6.80;3.97;;;11.00;99.90;;;;;;5035396;28;20523;-66
2023/05/15 03:19:42;;;;;;;4.30;3.55;;;11.00;99.90;;;;;;5033424;28;20028;-67
2023/05/15 03:22:07;;;;;;;4.70;3.83;;;11.10;99.90;;;;;;5036458;28;20230;-66
2023/05/15 03:24:33;;;;;;;6.38;4.18;;;11.20;99.90;;;;;;5032163;28;20044;-66
2023/05/15 03:26:59;;;;;;;5.68;2.90;;;11.20;99.90;;;;;;5026598;28;20135;-66
2023/05/15 03:29:24;;;;;;;9.57;3.78;;;11.10;99.90;;;;;;5034140;28;20021;-67
2023/05/15 03:31:50;;;;;;;7.50;3.75;;;11.10;99.90;;;;;;5020937;28;20052;-66
2023/05/15 03:34:15;;;;;;;4.95;3.65;;;11.10;99.90;;;;;;5031201;28;20398;-66
2023/05/15 03:36:41;;;;;;;6.03;3.58;;;11.10;99.90;;;;;;5031606;28;20021;-66
2023/05/15 03:39:07;;;;;;;4.68;3.28;;;11.10;99.90;;;;;;5030935;28;20033;-66
2023/05/15 03:41:32;;;;;;;4.00;3.40;;;11.10;99.90;;;;;;5022947;28;20028;-67
2023/05/15 03:43:58;;;;;;;4.75;3.65;;;11.10;99.90;;;;;;5030831;28;20033;-66
2023/05/15 03:46:23;;;;;;;9.93;4.40;;;11.10;99.90;;;;;;5034466;28;20029;-66
2023/05/15 03:48:49;;;;;;;8.00;4.43;;;11.00;99.90;;;;;;5034480;28;20505;-66
2023/05/15 03:51:15;;;;;;;7.45;4.75;;;11.10;99.90;;;;;;5033077;28;20108;-66
2023/05/15 03:53:40;;;;;;;9.50;5.07;;;11.10;99.90;;;;;;5029435;28;20052;-67
2023/05/15 03:56:06;;;;;;;8.48;4.25;;;11.10;99.90;;;;;;5022610;28;20041;-67
2023/05/15 03:58:31;;;;;;;9.45;4.57;;;11.10;99.90;;;;;;5041831;28;20061;-67
2023/05/15 04:00:57;;;;;;;16.45;6.40;;;11.20;99.90;;;;;;5033285;28;20040;-66
2023/05/15 04:03:23;;;;;;;10.38;5.63;;;11.20;99.90;;;;;;5031857;28;20059;-67
2023/05/15 04:05:49;;;;;;;17.33;7.85;;;11.20;99.90;;;;;;5029877;28;20050;-67
2023/05/15 04:08:15;;;;;;;30.25;10.13;;;11.30;99.90;;;;;;5036020;28;20846;-66
2023/05/15 04:10:40;;;;;;;43.17;17.88;;;11.40;99.90;;;;;;5034671;28;20055;-66
2023/05/15 04:13:06;;;;;;;32.17;14.90;;;11.50;99.90;;;;;;5029595;28;20037;-66
2023/05/15 04:15:31;;;;;;;29.33;14.32;;;11.60;99.90;;;;;;5023291;28;20037;-67
2023/05/15 04:17:57;;;;;;;30.10;14.00;;;11.70;99.90;;;;;;5027195;28;20032;-67
2023/05/15 04:20:24;;;;;;;31.52;13.88;;;11.80;99.90;;;;;;5039141;28;20446;-67
2023/05/15 04:22:50;;;;;;;53.25;22.35;;;11.80;99.90;;;;;;5035172;28;20070;-67
2023/05/15 04:25:16;;;;;;;52.80;21.35;;;11.90;99.90;;;;;;5046254;28;20029;-68
2023/05/15 04:27:43;;;;;;;53.50;23.25;;;12.00;99.90;;;;;;5046686;28;20022;-66
2023/05/15 04:30:10;;;;;;;43.45;18.77;;;12.10;99.90;;;;;;5037338;28;20102;-67
2023/05/15 04:32:36;;;;;;;53.83;22.00;;;12.10;99.90;;;;;;5034596;28;20513;-67
2023/05/15 04:35:10;;;;;;;57.58;23.13;;;12.20;99.90;;;;;;5031089;28;20021;-67
2023/05/15 04:37:37;;;;;;;52.90;21.63;;;12.30;99.90;;;;;;5027882;28;20499;-67
2023/05/15 04:40:03;;;;;;;59.80;23.05;;;12.30;99.90;;;;;;5033526;28;20447;-67
2023/05/15 04:42:29;;;;;;;56.45;25.20;;;12.30;99.90;;;;;;5031766;28;20043;-67
2023/05/15 04:44:54;;;;;;;53.92;24.30;;;12.40;99.90;;;;;;5030901;28;21636;-67
2023/05/15 04:47:20;;;;;;;64.80;24.30;;;12.40;99.90;;;;;;5034029;28;20026;-67
2023/05/15 04:49:46;;;;;;;60.03;22.50;;;12.50;99.90;;;;;;5036917;28;20040;-66
2023/05/15 04:52:12;;;;;;;54.28;21.90;;;12.50;99.90;;;;;;5030280;28;20045;-66
2023/05/15 04:54:38;;;;;;;64.80;25.77;;;12.60;99.90;;;;;;5030216;28;20026;-67
2023/05/15 04:57:05;;;;;;;69.05;27.15;;;12.60;99.90;;;;;;5030376;28;21049;-66
2023/05/15 04:59:30;;;;;;;64.30;26.27;;;12.60;99.90;;;;;;5031771;28;20021;-66
2023/05/15 05:01:56;;;;;;;72.30;27.13;;;12.70;99.90;;;;;;5030326;28;20451;-66
2023/05/15 05:04:22;;;;;;;66.28;26.67;;;12.70;99.90;;;;;;5029812;28;20033;-67
2023/05/15 05:06:48;;;;;;;63.17;27.00;;;12.70;99.90;;;;;;5030477;28;20498;-67
2023/05/15 05:09:13;;;;;;;67.68;28.98;;;12.80;99.90;;;;;;5028720;28;20029;-66
2023/05/15 05:11:42;;;;;;;65.90;28.15;;;12.80;99.90;;;;;;5030887;28;20025;-66
2023/05/15 05:14:09;;;;;;;64.90;27.58;;;12.80;99.90;;;;;;5028434;28;20044;-66
2023/05/15 05:16:35;;;;;;;60.30;25.90;;;12.80;99.90;;;;;;5005522;28;20403;-67
2023/05/15 05:19:01;;;;;;;72.15;27.27;;;12.90;99.90;;;;;;5031924;28;20025;-67
2023/05/15 05:21:26;;;;;;;65.38;29.88;;;12.90;99.90;;;;;;5023147;28;20097;-66
2023/05/15 05:23:52;;;;;;;65.10;27.25;;;12.90;99.90;;;;;;5039628;28;20041;-67
2023/05/15 05:26:18;;;;;;;60.08;27.50;;;12.90;99.90;;;;;;5039759;28;20040;-67
2023/05/15 05:28:43;;;;;;;63.30;28.05;;;12.90;99.90;;;;;;5037951;28;20062;-66
2023/05/15 05:31:09;;;;;;;57.67;26.20;;;12.90;99.90;;;;;;5034394;28;20027;-66
2023/05/15 05:33:35;;;;;;;56.95;26.77;;;12.90;99.90;;;;;;5028893;28;20037;-66
2023/05/15 05:36:01;;;;;;;59.13;26.98;;;12.80;99.90;;;;;;5027226;28;20026;-66
2023/05/15 05:38:26;;;;;;;55.67;25.88;;;12.90;99.90;;;;;;5043612;28;20493;-67
2023/05/15 05:40:52;;;;;;;52.40;25.95;;;13.00;99.90;;;;;;5023503;28;20618;-67
2023/05/15 05:43:19;;;;;;;62.88;26.67;;;12.80;99.90;;;;;;5040098;28;20037;-67
2023/05/15 05:45:45;;;;;;;56.42;27.05;;;12.90;99.90;;;;;;5035117;28;20529;-67
2023/05/15 05:48:12;;;;;;;58.47;26.65;;;13.00;99.90;;;;;;5038958;28;20045;-66
2023/05/15 05:50:38;;;;;;;61.95;27.27;;;13.00;99.90;;;;;;5015578;28;20621;-66
2023/05/15 05:53:03;;;;;;;62.17;28.45;;;13.00;99.90;;;;;;5038481;28;20111;-66
2023/05/15 05:55:29;;;;;;;59.85;28.05;;;13.00;99.90;;;;;;5038706;28;20585;-66
2023/05/15 05:57:55;;;;;;;55.22;28.52;;;12.90;99.90;;;;;;5039246;28;20984;-67
2023/05/15 06:00:20;;;;;;;65.57;29.77;;;13.00;99.90;;;;;;5039026;28;20021;-67
2023/05/15 06:02:46;;;;;;;64.80;30.08;;;13.00;99.90;;;;;;5038107;28;20029;-67
2023/05/15 06:05:12;;;;;;;70.32;33.03;;;13.00;99.90;;;;;;5032983;28;20054;-67
2023/05/15 06:07:38;;;;;;;65.43;33.88;;;13.10;99.90;;;;;;5025453;28;20536;-66
2023/05/15 06:10:04;;;;;;;73.00;36.63;;;13.00;99.90;;;;;;5039795;28;20064;-66
2023/05/15 06:12:29;;;;;;;74.93;37.90;;;13.00;99.90;;;;;;5040298;28;20036;-66
2023/05/15 06:14:55;;;;;;;72.35;38.03;;;13.00;99.90;;;;;;5032895;28;20390;-66
2023/05/15 06:17:20;;;;;;;73.75;38.90;;;13.00;99.90;;;;;;5038370;28;20036;-66
2023/05/15 06:19:46;;;;;;;73.65;36.85;;;13.10;99.90;;;;;;5037254;28;20021;-66
2023/05/15 06:22:11;;;;;;;72.10;38.42;;;13.10;99.90;;;;;;5033643;28;20124;-66
2023/05/15 06:24:37;;;;;;;67.05;37.13;;;13.10;99.90;;;;;;5042181;28;20075;-67
2023/05/15 06:27:03;;;;;;;75.43;36.28;;;13.10;99.90;;;;;;5035083;28;20326;-66
2023/05/15 06:29:28;;;;;;;66.43;35.42;;;13.00;99.90;;;;;;5037851;28;20056;-67
2023/05/15 06:31:54;;;;;;;70.40;35.28;;;13.10;99.90;;;;;;5036973;28;20036;-67
2023/05/15 06:34:20;;;;;;;69.40;36.20;;;13.20;99.90;;;;;;5034640;28;20032;-67
2023/05/15 06:36:45;;;;;;;61.05;32.28;;;13.20;99.90;;;;;;5045499;28;20112;-67
2023/05/15 06:39:11;;;;;;;72.50;36.80;;;13.20;99.90;;;;;;5043548;28;20630;-67
2023/05/15 06:41:37;;;;;;;60.95;35.80;;;13.30;99.90;;;;;;5038250;28;20478;-66
2023/05/15 06:44:03;;;;;;;59.10;32.72;;;13.40;99.90;;;;;;5025132;28;20032;-67
2023/05/15 06:46:29;;;;;;;62.55;33.67;;;13.60;99.90;;;;;;5039603;28;20033;-67
2023/05/15 06:48:54;;;;;;;60.88;32.63;;;13.50;99.90;;;;;;5038660;28;20020;-66
2023/05/15 06:51:20;;;;;;;59.03;32.80;;;13.50;99.90;;;;;;5038620;28;20028;-67
2023/05/15 06:53:46;;;;;;;60.83;34.85;;;13.50;99.90;;;;;;5039120;28;20026;-67
2023/05/15 06:56:11;;;;;;;62.78;33.33;;;13.60;99.90;;;;;;5035582;28;20025;-66
2023/05/15 06:58:37;;;;;;;59.90;35.05;;;13.70;99.90;;;;;;5034898;28;20037;-67
2023/05/15 07:01:03;;;;;;;63.47;31.90;;;13.80;99.90;;;;;;5034854;28;20072;-67
2023/05/15 07:03:31;;;;;;;63.42;35.08;;;13.80;99.90;;;;;;5029768;28;20113;-66
2023/05/15 07:05:57;;;;;;;62.05;34.78;;;13.70;99.90;;;;;;5036868;28;20055;-67
2023/05/15 07:08:22;;;;;;;71.63;34.15;;;13.80;99.90;;;;;;5033317;28;20029;-67
2023/05/15 07:10:48;;;;;;;71.20;37.17;;;13.90;99.90;;;;;;5028741;28;20030;-67
2023/05/15 07:13:16;;;;;;;64.20;35.42;;;13.80;99.90;;;;;;5035781;28;20017;-66
2023/05/15 07:15:42;;;;;;;61.13;35.25;;;13.80;99.90;;;;;;4999667;28;20119;-67
2023/05/15 07:18:08;;;;;;;69.57;35.83;;;13.80;99.90;;;;;;5023305;28;20121;-67
2023/05/15 07:20:34;;;;;;;64.75;36.38;;;13.80;99.90;;;;;;5044872;28;20068;-66
2023/05/15 07:23:00;;;;;;;62.92;35.25;;;13.70;99.90;;;;;;5037965;28;20025;-66
2023/05/15 07:25:25;;;;;;;68.82;36.72;;;13.70;99.90;;;;;;5036142;28;20033;-66
2023/05/15 07:27:51;;;;;;;66.35;36.70;;;13.70;99.90;;;;;;5037584;28;20033;-66
2023/05/15 07:30:17;;;;;;;65.53;37.03;;;13.80;99.90;;;;;;5039521;28;20394;-67
2023/05/15 07:32:42;;;;;;;59.22;34.75;;;13.80;99.90;;;;;;5026643;28;20025;-66
2023/05/15 07:35:10;;;;;;;60.30;35.03;;;13.80;99.90;;;;;;5043915;28;20033;-67
2023/05/15 07:37:36;;;;;;;62.88;36.55;;;13.90;99.90;;;;;;5039407;28;20403;-68
2023/05/15 07:40:03;;;;;;;56.03;33.88;;;14.00;99.90;;;;;;5049248;28;20119;-66
2023/05/15 07:42:28;;;;;;;57.30;32.92;;;14.00;99.90;;;;;;5042205;28;20492;-65
2023/05/15 07:44:54;;;;;;;60.97;33.03;;;14.10;99.90;;;;;;5020210;28;20176;-66
2023/05/15 07:47:20;;;;;;;62.47;32.75;;;14.10;99.90;;;;;;5039983;28;20033;-66
2023/05/15 07:49:45;;;;;;;60.10;31.48;;;14.20;99.90;;;;;;5037109;28;21023;-66
2023/05/15 07:52:11;;;;;;;62.95;32.65;;;14.20;99.90;;;;;;5033215;28;20388;-66
2023/05/15 07:54:38;;;;;;;64.80;34.38;;;14.20;99.90;;;;;;5038384;28;20017;-66
2023/05/15 07:57:04;;;;;;;53.55;31.25;;;14.10;99.90;;;;;;5045059;28;20031;-65
2023/05/15 07:59:29;;;;;;;62.53;33.60;;;14.00;99.90;;;;;;5041107;28;20028;-66
2023/05/15 08:01:55;;;;;;;65.55;37.00;;;14.00;99.90;;;;;;5039411;28;20041;-66
2023/05/15 08:04:21;;;;;;;55.50;32.33;;;14.00;99.90;;;;;;5043914;28;20026;-66
2023/05/15 08:06:46;;;;;;;68.72;34.25;;;14.00;99.90;;;;;;5044695;28;20445;-66
2023/05/15 08:09:12;;;;;;;68.03;34.95;;;14.00;99.90;;;;;;5045923;28;20064;-66
2023/05/15 08:11:37;;;;;;;63.67;35.53;;;13.90;99.90;;;;;;5044228;28;20491;-66
2023/05/15 08:14:03;;;;;;;59.42;34.58;;;13.90;99.90;;;;;;5037726;28;20025;-65
2023/05/15 08:16:29;;;;;;;61.75;36.28;;;13.80;99.90;;;;;;5035719;28;20091;-67
2023/05/15 08:18:59;;;;;;;63.60;34.53;;;13.80;99.90;;;;;;5043267;28;20033;-66
2023/05/15 08:21:26;;;;;;;60.85;35.42;;;13.90;99.90;;;;;;5037824;28;20483;-66
2023/05/15 08:23:52;;;;;;;65.13;33.63;;;13.90;99.90;;;;;;5015247;28;20025;-65
2023/05/15 08:26:17;;;;;;;62.20;35.67;;;14.00;99.90;;;;;;5043801;28;20079;-66
2023/05/15 08:28:43;;;;;;;59.95;33.80;;;14.10;99.90;;;;;;5044090;28;20029;-66
2023/05/15 08:31:09;;;;;;;63.33;35.35;;;14.10;99.90;;;;;;5028068;28;20091;-66
2023/05/15 08:33:34;;;;;;;58.38;33.97;;;14.10;99.90;;;;;;5042871;28;20091;-66
2023/05/15 08:36:00;;;;;;;55.80;33.30;;;14.10;99.90;;;;;;5046629;28;20029;-66
2023/05/15 08:38:25;;;;;;;61.25;34.83;;;14.20;99.90;;;;;;5048994;28;20556;-66
2023/05/15 08:40:53;;;;;;;52.88;30.65;;;14.10;99.90;;;;;;5038987;28;20037;-66
2023/05/15 08:43:21;;;;;;;52.17;29.52;;;14.10;99.90;;;;;;5039785;28;20029;-66
2023/05/15 08:45:48;;;;;;;54.72;32.78;;;14.20;99.90;;;;;;5038673;28;20021;-67
2023/05/15 08:48:18;;;;;;;53.47;31.55;;;14.30;99.90;;;;;;5041494;28;20043;-68
2023/05/15 08:50:44;;;;;;;53.83;32.40;;;14.50;99.90;;;;;;5040387;28;20044;-67
2023/05/15 08:53:12;;;;;;;58.22;33.95;;;14.70;99.90;;;;;;5038646;28;20044;-67
2023/05/15 08:55:38;;;;;;;53.90;33.30;;;14.90;99.90;;;;;;5042237;28;20029;-67
2023/05/15 08:58:03;;;;;;;50.55;30.83;;;14.80;99.90;;;;;;5044996;28;20032;-67
2023/05/15 09:00:30;;;;;;;49.13;30.58;;;15.10;99.90;;;;;;5041966;28;20157;-67
2023/05/15 09:03:02;;;;;;;62.80;31.23;;;14.90;99.90;;;;;;5042430;28;20098;-67
2023/05/15 09:05:29;;;;;;;46.70;27.92;;;14.90;99.90;;;;;;5044212;28;20024;-67
2023/05/15 09:07:57;;;;;;;51.92;30.00;;;14.90;99.90;;;;;;5031607;28;20026;-68
2023/05/15 09:10:23;;;;;;;48.67;29.10;;;14.90;99.90;;;;;;5044457;28;20056;-67
2023/05/15 09:12:51;;;;;;;46.42;27.65;;;14.90;99.90;;;;;;5035254;28;20483;-67
2023/05/15 09:15:20;;;;;;;48.30;28.63;;;15.00;99.90;;;;;;5042548;28;21872;-67
2023/05/15 09:17:47;;;;;;;47.67;30.70;;;15.00;99.90;;;;;;5021876;28;20068;-67
2023/05/15 09:20:32;;;;;;;52.78;30.75;;;15.00;99.90;;;;;;5039856;28;20479;-67
2023/05/15 09:22:59;;;;;;;59.35;34.13;;;15.10;99.90;;;;;;5040953;28;20493;-66
2023/05/15 09:25:41;;;;;;;58.05;32.67;;;15.20;99.90;;;;;;5037712;28;20014;-67
2023/05/15 09:28:09;;;;;;;53.15;32.58;;;15.10;99.90;;;;;;5039668;28;20040;-67
2023/05/15 09:30:40;;;;;;;57.30;34.08;;;15.20;99.90;;;;;;5036903;28;20029;-67
2023/05/15 09:33:07;;;;;;;53.67;33.13;;;15.10;99.90;;;;;;5041542;28;20032;-67
2023/05/15 09:35:35;;;;;;;56.00;33.45;;;15.20;99.90;;;;;;5037339;28;20025;-68
2023/05/15 09:38:02;;;;;;;53.55;31.85;;;15.20;99.90;;;;;;5036706;28;20683;-67
2023/05/15 09:40:30;;;;;;;57.40;32.67;;;15.30;99.90;;;;;;5044680;28;20029;-67
2023/05/15 09:42:56;;;;;;;46.00;28.25;;;15.50;99.90;;;;;;5031583;28;20117;-67
2023/05/15 09:45:24;;;;;;;42.33;27.85;;;15.80;99.90;;;;;;5030363;28;20028;-67
2023/05/15 09:47:50;;;;;;;52.05;28.63;;;15.60;99.90;;;;;;5035661;28;20122;-67
2023/05/15 09:50:24;;;;;;;49.22;30.13;;;16.00;99.90;;;;;;5044092;28;20095;-67
2023/05/15 09:52:50;;;;;;;50.10;28.02;;;15.90;99.90;;;;;;5042111;28;20053;-67
2023/05/15 09:55:18;;;;;;;48.90;29.05;;;16.10;99.90;;;;;;5039354;28;20052;-67
2023/05/15 09:58:02;;;;;;;45.55;30.00;;;16.10;99.90;;;;;;5042137;28;20040;-67
2023/05/15 10:00:29;;;;;;;53.47;29.52;;;16.20;99.90;;;;;;5022840;28;20021;-67
2023/05/15 10:03:00;;;;;;;50.80;31.75;;;16.40;99.90;;;;;;5033546;28;20053;-67
2023/05/15 10:05:26;;;;;;;51.25;30.50;;;16.40;99.90;;;;;;5032710;28;20557;-66
2023/05/15 10:07:54;;;;;;;55.67;32.38;;;16.30;99.90;;;;;;5037573;28;20025;-66
2023/05/15 10:10:21;;;;;;;46.17;29.38;;;16.00;99.90;;;;;;5036571;28;20014;-67
2023/05/15 10:12:49;;;;;;;46.80;30.10;;;16.00;99.90;;;;;;5020458;28;20028;-67
2023/05/15 10:15:15;;;;;;;48.33;31.50;;;16.10;99.90;;;;;;5023867;28;20057;-67
2023/05/15 10:17:43;;;;;;;54.22;31.50;;;16.40;99.90;;;;;;5005653;28;20068;-67
2023/05/15 10:20:10;;;;;;;49.08;31.88;;;16.80;99.90;;;;;;5031410;28;20091;-67
2023/05/15 10:22:44;;;;;;;59.47;36.20;;;17.20;99.90;;;;;;5033781;28;20041;-67
2023/05/15 10:25:31;;;;;;;65.60;37.83;;;17.40;99.90;;;;;;5038511;28;20571;-67
2023/05/15 10:27:57;;;;;;;58.15;36.40;;;17.80;99.90;;;;;;5038720;28;20503;-67
2023/05/15 10:30:24;;;;;;;52.80;34.72;;;18.10;99.90;;;;;;5024260;28;20396;-67
2023/05/15 10:32:50;;;;;;;58.75;34.15;;;18.70;99.90;;;;;;5032179;28;20021;-67
2023/05/15 10:35:17;;;;;;;52.42;32.67;;;18.90;99.90;;;;;;5035624;28;20048;-67
2023/05/15 10:37:47;;;;;;;49.05;33.00;;;19.10;99.90;;;;;;5031782;28;20032;-66
2023/05/15 10:40:15;;;;;;;47.22;30.23;;;19.60;99.90;;;;;;5035331;28;20041;-68
2023/05/15 10:42:46;;;;;;;42.70;28.33;;;19.90;99.90;;;;;;5048805;28;20040;-67
2023/05/15 10:45:12;;;;;;;40.25;26.17;;;20.00;99.50;;;;;;5041895;28;20110;-67
2023/05/15 10:47:39;;;;;;;38.90;26.85;;;19.90;99.90;;;;;;5035866;28;20025;-66
2023/05/15 10:50:06;;;;;;;37.85;26.38;;;19.40;99.90;;;;;;5037543;28;20040;-67
2023/05/15 10:52:32;;;;;;;36.90;25.48;;;19.80;99.90;;;;;;5037520;28;20448;-67
2023/05/15 10:54:59;;;;;;;32.58;22.63;;;19.80;99.90;;;;;;5032614;28;20029;-67
2023/05/15 10:57:28;;;;;;;30.38;20.98;;;19.90;98.70;;;;;;5034223;28;20033;-68
2023/05/15 10:59:54;;;;;;;35.53;21.45;;;19.90;99.30;;;;;;5035031;28;20028;-68
2023/05/15 11:02:22;;;;;;;30.88;20.98;;;19.60;99.70;;;;;;5041246;28;20460;-67
2023/05/15 11:04:59;;;;;;;29.27;20.65;;;19.40;99.70;;;;;;5039902;28;20032;-67
2023/05/15 11:07:25;;;;;;;28.48;20.58;;;19.20;99.90;;;;;;5038665;28;20036;-68
2023/05/15 11:09:53;;;;;;;30.92;20.10;;;19.40;99.90;;;;;;5045085;28;20044;-67
2023/05/15 11:12:18;;;;;;;23.65;17.13;;;19.50;99.90;;;;;;5040402;28;20037;-67
2023/05/15 11:15:11;;;;;;;29.98;19.35;;;19.40;99.00;;;;;;5048695;28;20585;-68
2023/05/15 11:17:36;;;;;;;26.42;17.40;;;19.40;99.90;;;;;;5018999;28;20037;-67
2023/05/15 11:20:03;;;;;;;27.05;18.25;;;19.60;99.90;;;;;;5038767;28;20043;-67
2023/05/15 11:22:32;;;;;;;30.50;17.38;;;19.90;98.30;;;;;;5043217;28;20029;-67
2023/05/15 11:25:01;;;;;;;27.33;17.48;;;19.90;99.90;;;;;;5043448;28;20021;-68
2023/05/15 11:27:53;;;;;;;24.38;15.80;;;19.80;99.90;;;;;;5033410;28;20030;-67
2023/05/15 11:30:21;;;;;;;21.75;14.07;;;19.90;99.70;;;;;;5031320;28;20069;-66
2023/05/15 11:32:46;;;;;;;23.23;14.85;;;20.10;98.70;;;;;;5040497;28;20223;-67
2023/05/15 11:35:20;;;;;;;21.10;13.52;;;20.30;98.10;;;;;;5043300;28;20298;-68
2023/05/15 11:37:48;;;;;;;21.08;13.48;;;20.50;98.30;;;;;;5033960;28;20022;-68
2023/05/15 11:40:22;;;;;;;21.15;14.02;;;20.60;97.30;;;;;;5040103;28;20025;-67
2023/05/15 11:42:59;;;;;;;19.50;14.60;;;20.60;98.40;;;;;;5039461;28;20033;-67
2023/05/15 11:45:27;;;;;;;23.10;14.88;;;20.40;98.20;;;;;;5043106;28;20368;-68
2023/05/15 11:47:52;;;;;;;26.08;15.65;;;20.60;98.10;;;;;;5039432;28;20104;-67
2023/05/15 11:50:19;;;;;;;17.75;12.88;;;20.60;96.50;;;;;;5041936;28;20116;-68
2023/05/15 11:52:47;;;;;;;22.13;15.13;;;20.50;97.50;;;;;;5040916;28;20099;-67
2023/05/15 11:55:15;;;;;;;20.42;13.43;;;20.40;95.40;;;;;;5037565;28;20534;-68
2023/05/15 11:57:40;;;;;;;21.15;13.98;;;20.00;97.10;;;;;;5039618;28;20490;-68
2023/05/15 12:00:08;;;;;;;23.02;13.93;;;19.90;97.00;;;;;;5034273;28;20072;-67
2023/05/15 12:02:34;;;;;;;27.60;11.80;;;20.10;97.80;;;;;;5040509;28;20053;-67
2023/05/15 12:04:59;;;;;;;20.25;12.35;;;20.30;96.50;;;;;;5043165;28;20037;-67
2023/05/15 12:07:25;;;;;;;17.42;11.27;;;20.10;95.50;;;;;;5035158;28;20056;-67
2023/05/15 12:09:54;;;;;;;16.63;10.70;;;20.20;97.40;;;;;;5022481;28;20037;-67
2023/05/15 12:12:19;;;;;;;22.23;12.73;;;20.40;96.20;;;;;;5038030;28;20025;-66
2023/05/15 12:14:45;;;;;;;19.52;11.55;;;20.10;95.10;;;;;;5036799;28;20091;-67
2023/05/15 12:17:11;;;;;;;17.27;11.82;;;20.10;95.90;;;;;;5035022;28;20021;-67
2023/05/15 12:19:37;;;;;;;19.33;12.43;;;20.00;96.80;;;;;;5015038;28;20467;-67
2023/05/15 12:22:07;;;;;;;17.80;12.50;;;20.00;95.20;;;;;;5032615;28;20037;-67
2023/05/15 12:24:36;;;;;;;16.80;11.52;;;19.80;96.30;;;;;;5038606;28;20033;-67
2023/05/15 12:27:02;;;;;;;16.90;10.02;;;20.00;96.20;;;;;;5030197;28;20036;-68
2023/05/15 12:29:27;;;;;;;12.50;9.13;;;20.20;96.20;;;;;;5028436;28;20037;-67
2023/05/15 12:31:53;;;;;;;15.85;9.15;;;20.50;96.10;;;;;;5042620;28;20078;-68
2023/05/15 12:34:20;;;;;;;15.38;8.60;;;20.50;94.10;;;;;;5041107;28;20100;-67